Time;durP1;ratioP1;P1;durP2;ratioP2;P2;SDS_P1;SDS_P2;PMS_P1;PMS_P2;Temp;Humidity;BMP_temperature;BMP_pressure;BME280_temperature;BME280_humidity;BME280_pressure;Samples;Min_cycle;Max_cycle;Signal;HPM_P1;HPM_P2
2020/12/08 00:00:27;;;;;;;19.83;15.30;;;5.00;99.90;;;;;;5074750;28;20415;-59
2020/12/08 00:02:53;;;;;;;21.97;16.17;;;5.00;99.90;;;;;;5074912;28;20397;-59
2020/12/08 00:05:19;;;;;;;20.30;14.50;;;5.00;99.90;;;;;;5074989;28;20538;-58
2020/12/08 00:07:46;;;;;;;19.37;15.87;;;5.20;99.90;;;;;;5074468;28;20665;-58
2020/12/08 00:10:12;;;;;;;16.83;14.13;;;5.20;99.90;;;;;;5074730;28;20416;-59
2020/12/08 00:12:37;;;;;;;18.87;14.63;;;5.10;99.90;;;;;;5074248;28;20408;-59
2020/12/08 00:15:04;;;;;;;18.23;13.93;;;5.10;99.90;;;;;;5074395;28;20178;-58
2020/12/08 00:17:32;;;;;;;17.50;14.07;;;5.20;99.90;;;;;;5079824;28;20188;-58
2020/12/08 00:19:58;;;;;;;16.20;13.53;;;5.10;99.90;;;;;;5094475;28;20442;-59
2020/12/08 00:22:24;;;;;;;18.43;14.20;;;5.20;99.90;;;;;;5094597;28;20403;-59
2020/12/08 00:24:49;;;;;;;18.57;14.50;;;5.00;99.90;;;;;;5092165;28;20411;-58
2020/12/08 00:27:15;;;;;;;18.57;14.50;;;5.10;99.90;;;;;;5074941;28;20332;-59
2020/12/08 00:29:41;;;;;;;19.47;15.33;;;5.20;99.90;;;;;;5074065;28;20170;-59
2020/12/08 00:32:08;;;;;;;19.20;14.53;;;5.40;99.90;;;;;;5074350;28;20504;-59
2020/12/08 00:34:35;;;;;;;20.30;16.00;;;5.40;99.90;;;;;;5074110;28;20411;-60
2020/12/08 00:37:01;;;;;;;18.60;15.37;;;5.40;99.90;;;;;;5073966;28;20428;-58
2020/12/08 00:39:26;;;;;;;19.17;15.17;;;5.30;99.90;;;;;;5073858;28;20404;-59
2020/12/08 00:41:52;;;;;;;21.57;17.13;;;5.30;99.90;;;;;;5074010;28;20166;-59
2020/12/08 00:44:17;;;;;;;18.33;14.80;;;5.30;99.90;;;;;;5074237;28;20202;-59
2020/12/08 00:46:48;;;;;;;21.30;16.97;;;5.20;99.90;;;;;;5073289;28;20572;-60
2020/12/08 00:49:14;;;;;;;19.57;14.90;;;5.20;99.90;;;;;;5072711;28;20537;-59
2020/12/08 00:51:40;;;;;;;21.57;17.30;;;5.30;99.90;;;;;;5073851;28;20483;-57
2020/12/08 00:54:05;;;;;;;21.37;16.93;;;5.30;99.90;;;;;;5073499;28;20202;-56
2020/12/08 00:56:31;;;;;;;18.97;15.20;;;5.10;99.90;;;;;;5073616;28;20189;-59
2020/12/08 00:58:57;;;;;;;21.00;16.10;;;5.20;99.90;;;;;;5075390;28;20646;-59
2020/12/08 01:01:25;;;;;;;19.10;15.50;;;5.40;99.90;;;;;;5085049;28;20170;-58
2020/12/08 01:03:51;;;;;;;21.40;15.60;;;5.50;99.90;;;;;;5084061;28;20795;-59
2020/12/08 01:06:16;;;;;;;22.90;17.67;;;5.60;99.90;;;;;;5090747;28;20454;-56
2020/12/08 01:08:42;;;;;;;21.90;17.07;;;5.60;99.90;;;;;;5094088;28;20169;-57
2020/12/08 01:11:08;;;;;;;20.43;15.63;;;5.50;99.90;;;;;;5090082;28;20181;-53
2020/12/08 01:13:36;;;;;;;23.17;17.90;;;5.60;99.90;;;;;;5073904;28;20176;-58
2020/12/08 01:16:06;;;;;;;22.40;17.27;;;5.30;99.90;;;;;;5072488;28;20431;-55
2020/12/08 01:18:32;;;;;;;24.00;18.47;;;5.10;99.90;;;;;;5072761;28;20770;-56
2020/12/08 01:20:58;;;;;;;24.30;17.57;;;5.00;99.90;;;;;;5073403;28;20424;-60
2020/12/08 01:23:24;;;;;;;21.83;16.77;;;5.10;99.90;;;;;;5072562;28;21114;-59
2020/12/08 01:25:50;;;;;;;23.70;18.60;;;5.10;99.90;;;;;;5073259;28;20462;-59
2020/12/08 01:28:17;;;;;;;24.10;18.10;;;5.20;99.90;;;;;;5073296;28;20408;-60
2020/12/08 01:30:44;;;;;;;21.13;16.63;;;5.30;99.90;;;;;;5073271;28;20184;-57
2020/12/08 01:33:10;;;;;;;21.70;17.40;;;5.50;99.90;;;;;;5071735;28;20428;-59
2020/12/08 01:35:35;;;;;;;25.10;18.77;;;5.60;99.90;;;;;;5073544;28;20495;-58
2020/12/08 01:38:01;;;;;;;21.17;17.70;;;5.60;99.90;;;;;;5072069;28;20174;-60
2020/12/08 01:40:26;;;;;;;23.87;18.07;;;5.70;99.90;;;;;;5073216;28;20177;-60
2020/12/08 01:42:52;;;;;;;22.47;16.60;;;5.70;99.90;;;;;;5073684;28;20174;-60
2020/12/08 01:45:18;;;;;;;20.83;16.93;;;5.70;99.90;;;;;;5073446;28;20219;-59
2020/12/08 01:47:43;;;;;;;21.23;16.63;;;5.70;99.90;;;;;;5072441;28;20193;-64
2020/12/08 01:50:09;;;;;;;20.83;16.20;;;5.60;99.90;;;;;;5072384;28;20264;-58
2020/12/08 01:52:35;;;;;;;20.60;15.53;;;5.70;99.90;;;;;;5073338;28;20648;-55
2020/12/08 01:55:03;;;;;;;22.80;18.10;;;5.70;99.90;;;;;;5073444;28;20173;-57
2020/12/08 01:57:28;;;;;;;20.87;16.23;;;5.60;99.90;;;;;;5073803;28;20604;-59
2020/12/08 01:59:54;;;;;;;21.93;17.53;;;5.60;99.90;;;;;;5073465;28;20411;-59
2020/12/08 02:02:21;;;;;;;22.00;16.47;;;5.60;99.90;;;;;;5073456;28;20166;-57
2020/12/08 02:04:46;;;;;;;19.93;15.83;;;5.50;99.90;;;;;;5073965;28;20192;-56
2020/12/08 02:07:12;;;;;;;23.30;15.80;;;5.50;99.90;;;;;;5073682;28;20456;-54
2020/12/08 02:09:37;;;;;;;23.30;16.87;;;5.40;99.90;;;;;;5072836;28;20174;-54
2020/12/08 02:12:04;;;;;;;20.67;16.90;;;5.40;99.90;;;;;;5072982;28;20177;-56
2020/12/08 02:14:30;;;;;;;23.03;18.67;;;5.30;99.90;;;;;;5074235;28;20745;-56
2020/12/08 02:16:56;;;;;;;21.90;16.23;;;5.20;99.90;;;;;;5089247;28;20499;-61
2020/12/08 02:19:21;;;;;;;26.50;17.60;;;5.10;99.90;;;;;;5093444;28;20433;-57
2020/12/08 02:21:47;;;;;;;25.20;18.43;;;5.10;99.90;;;;;;5092076;28;20174;-56
2020/12/08 02:24:16;;;;;;;25.67;19.10;;;5.00;99.90;;;;;;5094719;28;20178;-55
2020/12/08 02:26:45;;;;;;;23.20;17.00;;;5.00;99.90;;;;;;5077320;28;20289;-54
2020/12/08 02:29:11;;;;;;;24.57;17.23;;;4.90;99.90;;;;;;5079932;28;20506;-58
2020/12/08 02:31:37;;;;;;;22.03;16.07;;;4.80;99.90;;;;;;5080973;28;20435;-56
2020/12/08 02:34:03;;;;;;;21.80;16.63;;;4.70;99.90;;;;;;5097634;28;20420;-59
2020/12/08 02:36:29;;;;;;;22.07;17.23;;;4.50;99.90;;;;;;5096589;28;20185;-59
2020/12/08 02:38:54;;;;;;;23.30;16.70;;;4.50;99.90;;;;;;5097474;28;20486;-59
2020/12/08 02:41:26;;;;;;;22.97;16.40;;;4.40;99.90;;;;;;5096850;28;20188;-59
2020/12/08 02:43:53;;;;;;;19.50;15.20;;;4.50;99.90;;;;;;5092052;28;20170;-58
2020/12/08 02:46:19;;;;;;;22.40;16.77;;;4.50;99.90;;;;;;5079399;28;20471;-58
2020/12/08 02:48:47;;;;;;;22.33;15.87;;;4.50;99.90;;;;;;5076056;28;20465;-58
2020/12/08 02:51:19;;;;;;;22.27;17.60;;;4.50;99.90;;;;;;5076073;28;20445;-58
2020/12/08 02:53:45;;;;;;;24.67;17.90;;;4.40;99.90;;;;;;5076112;28;20419;-56
2020/12/08 02:56:11;;;;;;;23.83;19.40;;;4.50;99.90;;;;;;5076519;28;20424;-59
2020/12/08 02:58:37;;;;;;;24.67;17.33;;;4.50;99.90;;;;;;5076793;28;20404;-58
2020/12/08 03:01:03;;;;;;;23.73;16.03;;;4.50;99.90;;;;;;5076976;28;20994;-59
2020/12/08 03:03:30;;;;;;;27.60;19.77;;;4.30;99.90;;;;;;5075276;28;20227;-64
2020/12/08 03:05:55;;;;;;;25.20;18.40;;;4.40;99.90;;;;;;5075476;28;20473;-59
2020/12/08 03:08:21;;;;;;;23.90;17.20;;;4.40;99.90;;;;;;5075246;28;20831;-59
2020/12/08 03:10:47;;;;;;;23.83;17.63;;;4.40;99.90;;;;;;5075373;28;20216;-59
2020/12/08 03:13:13;;;;;;;26.33;18.40;;;4.40;99.90;;;;;;5075286;28;20197;-58
2020/12/08 03:15:38;;;;;;;26.57;19.90;;;4.30;99.90;;;;;;5075684;28;20829;-59
2020/12/08 03:18:04;;;;;;;25.10;16.40;;;4.20;99.90;;;;;;5075359;28;20243;-58
2020/12/08 03:20:29;;;;;;;27.97;19.93;;;4.20;99.90;;;;;;5075591;28;20189;-59
2020/12/08 03:22:55;;;;;;;29.50;20.13;;;4.10;99.90;;;;;;5075350;28;20228;-59
2020/12/08 03:25:20;;;;;;;26.10;18.90;;;4.10;99.90;;;;;;5075630;28;20251;-57
2020/12/08 03:27:46;;;;;;;27.83;17.93;;;4.20;99.90;;;;;;5076061;28;20202;-59
2020/12/08 03:30:12;;;;;;;28.10;19.57;;;4.20;99.90;;;;;;5075915;28;20652;-59
2020/12/08 03:32:37;;;;;;;27.57;18.53;;;4.20;99.90;;;;;;5075545;28;20213;-58
2020/12/08 03:35:03;;;;;;;25.73;17.33;;;4.20;99.90;;;;;;5076042;28;20231;-58
2020/12/08 03:37:29;;;;;;;26.53;19.00;;;4.20;99.90;;;;;;5075540;28;20186;-59
2020/12/08 03:39:54;;;;;;;25.87;19.40;;;4.20;99.90;;;;;;5075676;28;20451;-54
2020/12/08 03:42:20;;;;;;;26.63;19.40;;;4.20;99.90;;;;;;5076061;28;20169;-55
2020/12/08 03:44:46;;;;;;;25.00;17.07;;;4.20;99.90;;;;;;5076391;28;20173;-55
2020/12/08 03:47:12;;;;;;;29.07;20.37;;;4.10;99.90;;;;;;5075503;28;20820;-58
2020/12/08 03:49:37;;;;;;;26.27;18.37;;;4.10;99.90;;;;;;5075604;28;20170;-59
2020/12/08 03:52:03;;;;;;;30.70;20.20;;;4.00;99.90;;;;;;5074889;28;20647;-58
2020/12/08 03:54:28;;;;;;;28.53;19.20;;;4.00;99.90;;;;;;5075107;28;20257;-58
2020/12/08 03:56:54;;;;;;;28.97;20.97;;;3.80;99.90;;;;;;5085684;28;20197;-58
2020/12/08 03:59:20;;;;;;;24.93;18.80;;;3.60;99.90;;;;;;5076224;28;20186;-59
2020/12/08 04:01:49;;;;;;;29.40;21.00;;;3.60;99.90;;;;;;5075612;28;20176;-59
2020/12/08 04:04:15;;;;;;;28.83;20.37;;;3.60;99.90;;;;;;5076162;28;20170;-58
2020/12/08 04:06:41;;;;;;;31.17;20.63;;;3.70;99.90;;;;;;5075296;28;20856;-59
2020/12/08 04:09:07;;;;;;;29.43;20.63;;;3.80;99.90;;;;;;5076019;28;20428;-57
2020/12/08 04:11:33;;;;;;;28.97;20.00;;;3.70;99.90;;;;;;5079126;28;20159;-57
2020/12/08 04:14:00;;;;;;;30.77;20.13;;;3.70;99.90;;;;;;5079575;28;20174;-57
2020/12/08 04:16:32;;;;;;;31.77;22.70;;;3.60;99.90;;;;;;5078572;28;20535;-58
2020/12/08 04:18:59;;;;;;;29.23;20.67;;;3.60;99.90;;;;;;5077259;28;20404;-57
2020/12/08 04:21:27;;;;;;;27.90;19.20;;;3.60;99.90;;;;;;5074448;28;20866;-59
2020/12/08 04:24:02;;;;;;;31.23;20.50;;;3.60;99.90;;;;;;5090487;28;20414;-58
2020/12/08 04:26:28;;;;;;;25.27;18.20;;;3.70;99.90;;;;;;5080613;28;20456;-59
2020/12/08 04:28:54;;;;;;;30.13;20.33;;;3.50;99.90;;;;;;5077958;28;20411;-59
2020/12/08 04:31:20;;;;;;;24.60;18.27;;;3.40;99.90;;;;;;5077060;28;20409;-58
2020/12/08 04:33:46;;;;;;;28.73;21.77;;;3.30;99.90;;;;;;5076522;28;20676;-57
2020/12/08 04:36:13;;;;;;;37.43;22.70;;;3.30;99.90;;;;;;5077889;28;20217;-58
2020/12/08 04:38:40;;;;;;;32.93;21.37;;;3.20;99.90;;;;;;5076200;28;20491;-60
2020/12/08 04:41:05;;;;;;;34.60;22.63;;;3.20;99.90;;;;;;5094183;28;20406;-57
2020/12/08 04:43:31;;;;;;;34.20;22.00;;;3.30;99.90;;;;;;5094560;28;20480;-59
2020/12/08 04:45:57;;;;;;;39.80;24.80;;;3.40;99.90;;;;;;5094083;28;20188;-55
2020/12/08 04:48:22;;;;;;;35.40;23.10;;;3.30;99.90;;;;;;5093910;28;20251;-58
2020/12/08 04:50:49;;;;;;;33.30;23.10;;;3.40;99.90;;;;;;5093926;28;20413;-59
2020/12/08 04:53:14;;;;;;;44.03;25.47;;;3.30;99.90;;;;;;5092784;28;20660;-58
2020/12/08 04:55:40;;;;;;;30.77;20.90;;;3.20;99.90;;;;;;5093940;28;20438;-59
2020/12/08 04:58:08;;;;;;;34.73;22.53;;;3.20;99.90;;;;;;5093956;28;20544;-59
2020/12/08 05:00:40;;;;;;;28.93;19.97;;;3.30;99.90;;;;;;5094084;28;20586;-56
2020/12/08 05:03:06;;;;;;;35.00;23.57;;;3.30;99.90;;;;;;5093999;28;20402;-58
2020/12/08 05:05:41;;;;;;;30.40;21.07;;;3.30;99.90;;;;;;5092888;28;20414;-58
2020/12/08 05:08:13;;;;;;;30.40;20.70;;;3.20;99.90;;;;;;5085293;28;20494;-57
2020/12/08 05:10:40;;;;;;;30.10;20.50;;;3.40;99.90;;;;;;5073802;28;20427;-59
2020/12/08 05:13:15;;;;;;;34.80;23.00;;;3.60;99.90;;;;;;5073688;28;20441;-59
2020/12/08 05:15:41;;;;;;;30.00;22.27;;;3.60;99.90;;;;;;5073583;28;20382;-59
2020/12/08 05:18:09;;;;;;;35.07;23.40;;;3.60;99.90;;;;;;5073200;28;20413;-54
2020/12/08 05:20:35;;;;;;;33.27;23.37;;;3.60;99.90;;;;;;5073106;28;20249;-57
2020/12/08 05:23:01;;;;;;;35.60;23.00;;;3.50;99.90;;;;;;5072589;28;20419;-58
2020/12/08 05:25:28;;;;;;;36.67;23.60;;;3.40;99.90;;;;;;5073183;28;20417;-56
2020/12/08 05:27:56;;;;;;;34.43;22.90;;;3.40;99.90;;;;;;5073375;28;20212;-58
2020/12/08 05:30:22;;;;;;;33.23;21.00;;;3.40;99.90;;;;;;5073128;28;20415;-58
2020/12/08 05:32:48;;;;;;;34.17;21.53;;;3.40;99.90;;;;;;5074091;28;20412;-59
2020/12/08 05:35:20;;;;;;;31.37;21.50;;;3.50;99.90;;;;;;5073402;28;20411;-56
2020/12/08 05:37:48;;;;;;;33.17;23.00;;;3.70;99.90;;;;;;5070867;28;20440;-58
2020/12/08 05:40:17;;;;;;;35.37;23.60;;;3.80;99.90;;;;;;5073058;28;20857;-58
2020/12/08 05:42:44;;;;;;;28.23;20.17;;;3.80;99.90;;;;;;5073344;28;20418;-57
2020/12/08 05:45:13;;;;;;;35.13;23.87;;;3.80;99.90;;;;;;5073131;28;20767;-57
2020/12/08 05:47:48;;;;;;;33.63;23.37;;;3.80;99.90;;;;;;5073188;28;20460;-58
2020/12/08 05:50:15;;;;;;;33.97;23.37;;;3.80;99.90;;;;;;5073103;28;20959;-58
2020/12/08 05:52:49;;;;;;;26.50;19.57;;;3.90;99.90;;;;;;5072786;28;20399;-59
2020/12/08 05:55:17;;;;;;;32.27;22.40;;;3.90;99.90;;;;;;5073306;28;20445;-58
2020/12/08 05:57:44;;;;;;;32.07;22.70;;;3.90;99.90;;;;;;5073200;28;20443;-58
2020/12/08 06:00:20;;;;;;;36.60;23.93;;;3.90;99.90;;;;;;5073117;28;20957;-58
2020/12/08 06:02:46;;;;;;;35.67;23.77;;;4.00;99.90;;;;;;5076427;28;20454;-59
2020/12/08 06:05:12;;;;;;;30.63;24.07;;;4.10;99.90;;;;;;5076926;28;20456;-59
2020/12/08 06:07:37;;;;;;;34.27;22.77;;;4.10;99.90;;;;;;5075130;28;20983;-58
2020/12/08 06:10:05;;;;;;;33.87;23.10;;;4.10;99.90;;;;;;5076785;28;20249;-56
2020/12/08 06:12:30;;;;;;;34.10;24.07;;;4.10;99.90;;;;;;5076859;28;20531;-55
2020/12/08 06:14:56;;;;;;;29.30;20.27;;;4.20;99.90;;;;;;5079327;28;20404;-55
2020/12/08 06:17:21;;;;;;;27.90;20.33;;;4.40;99.90;;;;;;5099528;28;20189;-55
2020/12/08 06:19:47;;;;;;;32.90;23.37;;;4.50;99.90;;;;;;5097548;28;20185;-53
2020/12/08 06:22:14;;;;;;;33.97;23.27;;;4.60;99.90;;;;;;5096977;28;20193;-53
2020/12/08 06:24:51;;;;;;;33.13;23.60;;;4.60;99.90;;;;;;5093153;28;20165;-54
2020/12/08 06:27:23;;;;;;;30.77;22.93;;;4.60;99.90;;;;;;5076342;28;20851;-53
2020/12/08 06:29:51;;;;;;;33.90;23.47;;;4.50;99.90;;;;;;5076588;28;20491;-59
2020/12/08 06:32:24;;;;;;;35.07;24.47;;;4.50;99.90;;;;;;5076599;28;20408;-60
2020/12/08 06:34:49;;;;;;;30.00;21.87;;;4.50;99.90;;;;;;5075992;28;20408;-56
2020/12/08 06:37:15;;;;;;;34.03;23.73;;;4.40;99.90;;;;;;5075328;28;20974;-58
2020/12/08 06:39:41;;;;;;;36.10;26.03;;;4.30;99.90;;;;;;5076338;28;20173;-59
2020/12/08 06:42:14;;;;;;;32.57;22.20;;;4.20;99.90;;;;;;5076380;28;20181;-57
2020/12/08 06:44:39;;;;;;;32.80;22.33;;;4.10;99.90;;;;;;5076126;28;20177;-57
2020/12/08 06:47:05;;;;;;;38.30;25.70;;;4.10;99.90;;;;;;5076245;28;20451;-56
2020/12/08 06:49:42;;;;;;;39.57;26.93;;;4.00;99.90;;;;;;5084294;28;20269;-60
2020/12/08 06:52:10;;;;;;;37.73;25.03;;;3.90;99.90;;;;;;5075658;28;20205;-60
2020/12/08 06:54:36;;;;;;;35.73;23.57;;;4.00;99.90;;;;;;5076291;28;20763;-59
2020/12/08 06:57:05;;;;;;;35.47;24.33;;;3.90;99.90;;;;;;5075811;28;20916;-60
2020/12/08 06:59:30;;;;;;;38.50;27.53;;;3.80;99.90;;;;;;5076108;28;20181;-60
2020/12/08 07:01:58;;;;;;;34.67;23.77;;;3.70;99.90;;;;;;5074838;28;20850;-59
2020/12/08 07:04:29;;;;;;;39.70;26.43;;;3.60;99.90;;;;;;5075038;28;20186;-58
2020/12/08 07:06:58;;;;;;;32.37;23.20;;;3.50;99.90;;;;;;5075204;28;20905;-57
2020/12/08 07:09:24;;;;;;;36.97;24.97;;;3.60;99.90;;;;;;5075166;28;20399;-58
2020/12/08 07:12:02;;;;;;;34.27;22.87;;;3.60;99.90;;;;;;5074880;28;20431;-58
2020/12/08 07:14:30;;;;;;;39.50;25.60;;;3.50;99.90;;;;;;5074372;28;20393;-57
2020/12/08 07:16:56;;;;;;;32.20;22.67;;;3.40;99.90;;;;;;5074986;28;20861;-59
2020/12/08 07:19:22;;;;;;;37.87;26.63;;;3.40;99.90;;;;;;5075301;28;20420;-59
2020/12/08 07:22:02;;;;;;;28.30;20.90;;;3.20;99.90;;;;;;5075018;28;20755;-59
2020/12/08 07:24:27;;;;;;;35.00;22.40;;;3.40;99.90;;;;;;5074572;28;20172;-59
2020/12/08 07:27:00;;;;;;;38.50;24.47;;;3.40;99.90;;;;;;5075052;28;21015;-60
2020/12/08 07:29:26;;;;;;;31.77;22.60;;;3.50;99.90;;;;;;5075437;28;20196;-60
2020/12/08 07:31:52;;;;;;;36.73;24.97;;;3.50;99.90;;;;;;5075458;28;20481;-60
2020/12/08 07:34:18;;;;;;;33.67;22.77;;;3.40;99.90;;;;;;5074654;28;20184;-59
2020/12/08 07:36:43;;;;;;;31.70;20.67;;;3.30;99.90;;;;;;5075152;28;20263;-58
2020/12/08 07:39:20;;;;;;;33.00;23.80;;;3.20;99.90;;;;;;5074810;28;20677;-59
2020/12/08 07:41:45;;;;;;;36.17;23.30;;;3.40;99.90;;;;;;5074957;28;20181;-59
2020/12/08 07:44:12;;;;;;;33.60;24.70;;;3.40;99.90;;;;;;5075429;28;20462;-58
2020/12/08 07:46:50;;;;;;;35.20;24.70;;;3.40;99.90;;;;;;5075119;28;20704;-58
2020/12/08 07:49:16;;;;;;;35.03;24.30;;;3.40;99.90;;;;;;5073732;28;20790;-59
2020/12/08 07:51:42;;;;;;;33.80;23.20;;;3.40;99.90;;;;;;5074450;28;20400;-59
2020/12/08 07:54:08;;;;;;;37.00;23.83;;;3.40;99.90;;;;;;5074655;28;20907;-59
2020/12/08 07:56:36;;;;;;;35.00;23.23;;;3.30;99.90;;;;;;5075482;28;20205;-56
2020/12/08 07:59:05;;;;;;;35.40;25.03;;;3.20;99.90;;;;;;5076379;28;20414;-59
2020/12/08 08:01:42;;;;;;;39.90;24.50;;;3.30;99.90;;;;;;5077807;28;20404;-58
2020/12/08 08:04:08;;;;;;;32.77;22.37;;;3.40;99.90;;;;;;5075785;28;20455;-56
2020/12/08 08:06:34;;;;;;;37.60;26.10;;;3.50;99.90;;;;;;5075730;28;20507;-57
2020/12/08 08:09:05;;;;;;;31.47;22.37;;;3.40;99.90;;;;;;5083963;28;20415;-58
2020/12/08 08:11:31;;;;;;;33.83;23.30;;;3.50;99.90;;;;;;5079759;28;20528;-58
2020/12/08 08:13:56;;;;;;;40.80;27.07;;;3.60;99.90;;;;;;5074036;28;20416;-59
2020/12/08 08:16:22;;;;;;;36.70;25.30;;;3.60;99.90;;;;;;5075062;28;20429;-59
2020/12/08 08:18:47;;;;;;;30.80;22.73;;;3.60;99.90;;;;;;5075060;28;20180;-59
2020/12/08 08:21:14;;;;;;;38.17;27.17;;;3.60;99.90;;;;;;5074284;28;20189;-58
2020/12/08 08:23:40;;;;;;;36.27;25.67;;;3.60;99.90;;;;;;5072728;28;20256;-59
2020/12/08 08:26:07;;;;;;;42.77;27.77;;;3.60;99.90;;;;;;5089365;28;20423;-56
2020/12/08 08:28:33;;;;;;;36.60;24.97;;;3.60;99.90;;;;;;5094680;28;20407;-55
2020/12/08 08:31:00;;;;;;;36.23;23.60;;;3.60;99.90;;;;;;5094479;28;20492;-55
2020/12/08 08:33:25;;;;;;;41.93;26.83;;;3.70;99.90;;;;;;5093470;28;20492;-58
2020/12/08 08:35:51;;;;;;;39.03;26.07;;;3.80;99.90;;;;;;5094390;28;20395;-59
2020/12/08 08:38:18;;;;;;;34.47;23.00;;;3.80;99.90;;;;;;5094074;28;20176;-58
2020/12/08 08:40:44;;;;;;;40.43;27.67;;;3.70;99.90;;;;;;5093154;28;20246;-58
2020/12/08 08:43:10;;;;;;;41.70;29.27;;;3.60;99.90;;;;;;5094066;28;20411;-57
2020/12/08 08:45:36;;;;;;;39.13;26.80;;;3.50;99.90;;;;;;5094380;28;20456;-59
2020/12/08 08:48:01;;;;;;;39.93;27.17;;;3.50;99.90;;;;;;5094077;28;20214;-59
2020/12/08 08:50:27;;;;;;;43.53;28.20;;;3.40;99.90;;;;;;5094078;28;20172;-59
2020/12/08 08:52:53;;;;;;;40.80;26.83;;;3.50;99.90;;;;;;5093543;28;20314;-57
2020/12/08 08:55:18;;;;;;;43.70;26.57;;;3.60;99.90;;;;;;5093784;28;20675;-59
2020/12/08 08:57:45;;;;;;;39.47;26.97;;;3.50;99.90;;;;;;5089051;28;20213;-58
2020/12/08 09:00:11;;;;;;;41.47;28.73;;;3.60;99.90;;;;;;5073503;28;20488;-59
2020/12/08 09:02:37;;;;;;;35.93;25.23;;;3.80;99.90;;;;;;5073659;28;20411;-58
2020/12/08 09:05:04;;;;;;;33.13;24.53;;;4.00;99.90;;;;;;5072325;28;20467;-59
2020/12/08 09:07:30;;;;;;;39.30;25.00;;;4.30;99.90;;;;;;5073285;28;20542;-57
2020/12/08 09:09:56;;;;;;;32.90;24.03;;;4.40;99.90;;;;;;5073606;28;20515;-60
2020/12/08 09:12:23;;;;;;;36.90;25.70;;;4.60;99.90;;;;;;5073537;28;20219;-58
2020/12/08 09:14:51;;;;;;;40.00;26.90;;;4.80;99.90;;;;;;5073265;28;20919;-59
2020/12/08 09:17:17;;;;;;;37.50;26.80;;;5.00;99.90;;;;;;5073177;28;20420;-57
2020/12/08 09:19:43;;;;;;;35.13;24.20;;;5.00;99.90;;;;;;5071998;28;20447;-60
2020/12/08 09:22:09;;;;;;;34.60;24.37;;;5.10;99.90;;;;;;5073265;28;20423;-59
2020/12/08 09:24:34;;;;;;;38.63;25.43;;;5.10;99.90;;;;;;5072966;28;20404;-58
2020/12/08 09:27:01;;;;;;;32.90;23.57;;;5.20;99.90;;;;;;5072919;28;20193;-59
2020/12/08 09:29:27;;;;;;;34.13;25.20;;;5.30;99.90;;;;;;5073312;28;20166;-60
2020/12/08 09:31:56;;;;;;;32.17;22.40;;;5.20;99.90;;;;;;5073397;28;20401;-59
2020/12/08 09:34:25;;;;;;;33.13;22.90;;;5.20;99.90;;;;;;5071984;28;20420;-56
2020/12/08 09:36:55;;;;;;;39.90;27.17;;;5.30;99.90;;;;;;5072219;28;20424;-58
2020/12/08 09:39:21;;;;;;;31.93;22.67;;;5.30;99.90;;;;;;5073037;28;20400;-58
2020/12/08 09:41:47;;;;;;;34.97;25.80;;;5.30;99.90;;;;;;5076905;28;20455;-58
2020/12/08 09:44:13;;;;;;;35.20;24.03;;;4.90;99.90;;;;;;5086102;28;20977;-58
2020/12/08 09:46:40;;;;;;;31.60;24.17;;;4.80;99.90;;;;;;5092889;28;20459;-56
2020/12/08 09:49:06;;;;;;;36.03;24.67;;;4.90;99.90;;;;;;5080451;28;20166;-58
2020/12/08 09:51:32;;;;;;;32.60;22.07;;;4.80;99.90;;;;;;5072725;28;20403;-58
2020/12/08 09:53:58;;;;;;;33.10;24.10;;;5.10;99.90;;;;;;5071884;28;20525;-59
2020/12/08 09:56:24;;;;;;;35.57;24.13;;;4.90;99.90;;;;;;5072575;28;20435;-59
2020/12/08 09:58:52;;;;;;;41.60;25.20;;;4.90;99.90;;;;;;5072869;28;20399;-56
2020/12/08 10:01:31;;;;;;;38.33;26.70;;;5.20;99.90;;;;;;5072593;28;20158;-65
2020/12/08 10:03:57;;;;;;;31.07;23.80;;;5.40;99.90;;;;;;5072897;28;20420;-58
2020/12/08 10:06:23;;;;;;;29.60;21.90;;;5.50;99.90;;;;;;5073034;28;20758;-59
2020/12/08 10:08:49;;;;;;;29.80;22.37;;;5.40;99.90;;;;;;5071686;28;20430;-59
2020/12/08 10:11:15;;;;;;;29.97;23.40;;;5.60;99.90;;;;;;5073036;28;20179;-60
2020/12/08 10:13:41;;;;;;;29.53;21.70;;;5.40;99.90;;;;;;5072952;28;20400;-56
2020/12/08 10:16:08;;;;;;;32.17;23.47;;;5.20;99.90;;;;;;5072533;28;20285;-57
2020/12/08 10:18:33;;;;;;;32.07;22.70;;;5.40;99.90;;;;;;5071571;28;20424;-59
2020/12/08 10:21:00;;;;;;;31.33;22.33;;;5.50;99.90;;;;;;5072456;28;20434;-60
2020/12/08 10:23:26;;;;;;;30.20;24.10;;;5.50;99.90;;;;;;5072647;28;20178;-59
2020/12/08 10:25:52;;;;;;;33.37;24.03;;;5.60;99.90;;;;;;5079735;28;20479;-58
2020/12/08 10:28:18;;;;;;;33.20;24.17;;;5.70;99.90;;;;;;5073078;28;20509;-59
2020/12/08 10:30:44;;;;;;;33.80;23.90;;;5.90;99.90;;;;;;5072853;28;20514;-56
2020/12/08 10:33:09;;;;;;;33.30;25.50;;;6.00;99.90;;;;;;5072947;28;20173;-60
2020/12/08 10:35:35;;;;;;;32.00;24.90;;;6.10;99.90;;;;;;5072398;28;20170;-58
2020/12/08 10:38:01;;;;;;;35.73;25.10;;;6.00;99.90;;;;;;5072788;28;20273;-57
2020/12/08 10:40:27;;;;;;;35.10;25.73;;;6.00;99.90;;;;;;5072869;28;20412;-59
2020/12/08 10:42:53;;;;;;;30.33;22.03;;;5.90;99.90;;;;;;5072030;28;20428;-56
2020/12/08 10:45:18;;;;;;;32.00;21.00;;;5.80;99.90;;;;;;5072440;28;20174;-56
2020/12/08 10:47:44;;;;;;;31.43;22.67;;;6.00;99.90;;;;;;5073791;28;20202;-58
2020/12/08 10:50:10;;;;;;;28.80;21.30;;;6.10;99.90;;;;;;5076038;28;20252;-58
2020/12/08 10:52:36;;;;;;;30.17;23.20;;;6.20;99.90;;;;;;5076301;28;20205;-59
2020/12/08 10:55:01;;;;;;;31.33;20.97;;;7.60;99.90;;;;;;5075955;28;20492;-59
2020/12/08 10:57:27;;;;;;;32.40;23.83;;;9.10;99.90;;;;;;5076384;28;20215;-55
2020/12/08 10:59:53;;;;;;;26.60;22.13;;;10.90;99.90;;;;;;5075518;28;20187;-55
2020/12/08 11:02:19;;;;;;;28.03;22.13;;;11.00;99.90;;;;;;5076856;28;20178;-56
2020/12/08 11:04:45;;;;;;;29.53;22.27;;;10.40;99.60;;;;;;5076590;28;20177;-56
2020/12/08 11:07:11;;;;;;;28.53;21.90;;;10.90;99.90;;;;;;5076157;28;20453;-58
2020/12/08 11:09:36;;;;;;;28.10;21.70;;;11.20;98.80;;;;;;5076068;28;20174;-57
2020/12/08 11:12:02;;;;;;;27.57;20.47;;;11.40;98.90;;;;;;5075748;28;20178;-55
2020/12/08 11:14:28;;;;;;;25.73;21.23;;;12.20;97.50;;;;;;5075421;28;20673;-58
2020/12/08 11:16:55;;;;;;;29.10;22.00;;;13.20;96.40;;;;;;5075735;28;20340;-55
2020/12/08 11:19:20;;;;;;;25.27;20.40;;;13.50;94.90;;;;;;5074300;28;20960;-58
2020/12/08 11:21:46;;;;;;;24.33;19.73;;;14.00;94.10;;;;;;5074999;28;20411;-60
2020/12/08 11:24:12;;;;;;;26.00;20.60;;;14.80;92.80;;;;;;5075269;28;20198;-59
2020/12/08 11:26:37;;;;;;;26.20;21.30;;;15.10;92.00;;;;;;5074399;28;20687;-59
2020/12/08 11:29:05;;;;;;;24.83;19.80;;;14.80;91.60;;;;;;5075646;28;20237;-60
2020/12/08 11:31:31;;;;;;;24.43;20.93;;;14.60;91.40;;;;;;5074130;28;20217;-60
2020/12/08 11:33:57;;;;;;;24.43;20.73;;;14.00;92.10;;;;;;5075169;28;20431;-58
2020/12/08 11:36:23;;;;;;;25.03;20.30;;;13.10;93.20;;;;;;5075651;28;20456;-59
2020/12/08 11:38:49;;;;;;;25.47;20.40;;;12.90;93.90;;;;;;5075106;28;20189;-59
2020/12/08 11:41:14;;;;;;;27.73;21.67;;;12.70;94.10;;;;;;5075410;28;20170;-60
2020/12/08 11:43:41;;;;;;;26.20;21.50;;;12.60;94.10;;;;;;5075010;28;20412;-59
2020/12/08 11:46:11;;;;;;;26.80;20.60;;;12.20;94.80;;;;;;5074082;28;20200;-59
2020/12/08 11:48:37;;;;;;;26.73;22.30;;;11.90;95.00;;;;;;5075106;28;20387;-57
2020/12/08 11:51:03;;;;;;;28.23;22.43;;;11.90;95.10;;;;;;5075168;28;20963;-58
2020/12/08 11:53:29;;;;;;;26.80;22.30;;;11.90;95.40;;;;;;5074959;28;20649;-58
2020/12/08 11:55:54;;;;;;;28.20;23.00;;;11.90;95.40;;;;;;5074902;28;20162;-59
2020/12/08 11:58:20;;;;;;;23.73;19.70;;;12.10;94.30;;;;;;5073686;28;20177;-58
2020/12/08 12:00:46;;;;;;;27.60;22.73;;;11.60;95.40;;;;;;5074576;28;20223;-58
2020/12/08 12:03:11;;;;;;;26.53;21.90;;;11.50;95.80;;;;;;5074995;28;20200;-60
2020/12/08 12:05:37;;;;;;;24.43;19.87;;;12.10;94.80;;;;;;5073974;28;20949;-56
2020/12/08 12:08:04;;;;;;;25.47;20.93;;;11.50;96.20;;;;;;5074563;28;20224;-58
2020/12/08 12:10:29;;;;;;;24.13;20.47;;;11.50;96.10;;;;;;5075885;28;20744;-57
2020/12/08 12:12:55;;;;;;;28.43;21.20;;;12.60;94.60;;;;;;5076035;28;20425;-57
2020/12/08 12:15:21;;;;;;;24.17;19.70;;;11.50;95.30;;;;;;5079266;28;20176;-58
2020/12/08 12:17:46;;;;;;;25.77;20.20;;;11.80;95.90;;;;;;5079129;28;20193;-58
2020/12/08 12:20:12;;;;;;;23.70;20.33;;;12.00;94.90;;;;;;5077048;28;20232;-57
2020/12/08 12:22:38;;;;;;;24.37;20.13;;;12.20;95.00;;;;;;5076432;28;20173;-57
2020/12/08 12:25:05;;;;;;;21.40;19.10;;;12.70;94.70;;;;;;5100240;28;20176;-56
2020/12/08 12:27:31;;;;;;;21.97;18.93;;;12.10;94.10;;;;;;5117394;28;20252;-58
2020/12/08 12:29:56;;;;;;;23.20;18.90;;;10.80;95.60;;;;;;5117097;28;20430;-56
2020/12/08 12:32:22;;;;;;;24.80;18.53;;;9.20;98.70;;;;;;5114560;28;20466;-58